Time;durP1;ratioP1;P1;durP2;ratioP2;P2;SDS_P1;SDS_P2;PMS_P1;PMS_P2;Temp;Humidity;BMP_temperature;BMP_pressure;BME280_temperature;BME280_humidity;BME280_pressure;Samples;Min_cycle;Max_cycle;Signal;HPM_P1;HPM_P2
2021/04/22 00:00:01;;;;;;;18.73;15.25;;;16.10;55.00;;;;;;5069512;28;20052;-64
2021/04/22 00:02:28;;;;;;;19.17;14.43;;;16.30;50.40;;;;;;5068958;28;20498;-62
2021/04/22 00:04:55;;;;;;;20.30;15.52;;;16.40;49.00;;;;;;5071544;28;20024;-67
2021/04/22 00:07:23;;;;;;;14.10;11.93;;;16.50;49.40;;;;;;5072756;28;20031;-62
2021/04/22 00:09:50;;;;;;;15.15;12.57;;;16.60;49.10;;;;;;5072566;28;20107;-61
2021/04/22 00:12:18;;;;;;;21.15;14.63;;;16.70;49.60;;;;;;5072306;28;20111;-66
2021/04/22 00:14:45;;;;;;;19.48;16.48;;;16.80;46.80;;;;;;5071141;28;20399;-62
2021/04/22 00:17:13;;;;;;;18.42;15.85;;;16.80;47.90;;;;;;5075814;28;20037;-65
2021/04/22 00:19:40;;;;;;;24.85;19.45;;;16.90;48.20;;;;;;5073139;28;20020;-61
2021/04/22 00:22:07;;;;;;;28.42;21.48;;;17.00;48.80;;;;;;5072982;28;20327;-62
2021/04/22 00:24:34;;;;;;;24.02;19.55;;;17.10;48.30;;;;;;5072758;28;20020;-60
2021/04/22 00:27:02;;;;;;;26.15;19.13;;;17.30;47.60;;;;;;5071832;28;20024;-66
2021/04/22 00:29:29;;;;;;;25.33;20.48;;;17.50;48.10;;;;;;5072799;28;20060;-64
2021/04/22 00:31:57;;;;;;;26.40;20.20;;;17.50;46.90;;;;;;5074226;28;20028;-60
2021/04/22 00:34:24;;;;;;;27.45;20.55;;;17.50;47.80;;;;;;5075252;28;20035;-66
2021/04/22 00:36:51;;;;;;;27.20;21.25;;;17.60;47.60;;;;;;5071733;28;20410;-62
2021/04/22 00:39:19;;;;;;;26.70;21.15;;;17.80;47.70;;;;;;5072395;28;20016;-67
2021/04/22 00:41:46;;;;;;;26.58;20.58;;;17.80;46.90;;;;;;5072210;28;20009;-66
2021/04/22 00:44:13;;;;;;;34.17;22.48;;;18.00;47.30;;;;;;5076763;28;20031;-65
2021/04/22 00:46:41;;;;;;;27.60;22.75;;;18.10;45.00;;;;;;5071651;28;20036;-66
2021/04/22 00:49:08;;;;;;;27.25;22.58;;;18.30;43.50;;;;;;5067479;28;20107;-60
2021/04/22 00:51:35;;;;;;;31.88;24.35;;;18.40;43.50;;;;;;5064872;28;20020;-61
2021/04/22 00:54:03;;;;;;;34.53;26.85;;;18.40;44.00;;;;;;5071381;28;20134;-62
2021/04/22 00:56:30;;;;;;;30.08;24.73;;;18.40;44.00;;;;;;5078209;28;20028;-61
2021/04/22 00:58:58;;;;;;;40.83;30.30;;;18.40;44.40;;;;;;5074764;28;20420;-67
2021/04/22 01:01:25;;;;;;;38.25;31.15;;;18.50;44.80;;;;;;5067808;28;20017;-60
2021/04/22 01:03:53;;;;;;;40.28;33.50;;;18.60;44.50;;;;;;5070492;28;20078;-65
2021/04/22 01:06:22;;;;;;;33.22;27.23;;;18.70;45.20;;;;;;5074190;28;20163;-64
2021/04/22 01:08:49;;;;;;;37.72;28.13;;;18.90;45.00;;;;;;5080072;28;20064;-67
2021/04/22 01:11:17;;;;;;;41.58;34.10;;;19.00;43.40;;;;;;5080425;28;20039;-60
2021/04/22 01:13:44;;;;;;;34.03;28.23;;;19.00;44.70;;;;;;5079200;28;20416;-60
2021/04/22 01:16:11;;;;;;;34.22;29.17;;;19.10;43.70;;;;;;5079397;28;20753;-65
2021/04/22 01:18:40;;;;;;;34.22;25.15;;;19.30;43.70;;;;;;5075274;28;20060;-65
2021/04/22 01:21:11;;;;;;;36.22;26.27;;;19.30;42.00;;;;;;5077609;28;20040;-59
2021/04/22 01:23:39;;;;;;;33.20;26.90;;;19.40;43.60;;;;;;5074612;28;20039;-67
2021/04/22 01:26:07;;;;;;;31.50;28.17;;;19.70;43.90;;;;;;5060424;28;20078;-65
2021/04/22 01:28:35;;;;;;;32.35;28.92;;;19.90;42.70;;;;;;5071738;28;20020;-64
2021/04/22 01:31:02;;;;;;;36.70;28.65;;;20.20;43.40;;;;;;5067404;28;20027;-67
2021/04/22 01:33:30;;;;;;;31.90;28.20;;;20.40;41.90;;;;;;5067260;28;20092;-60
2021/04/22 01:35:59;;;;;;;31.98;25.73;;;20.30;41.60;;;;;;5068220;28;20036;-60
2021/04/22 01:38:27;;;;;;;30.17;24.20;;;20.20;39.10;;;;;;5061140;28;20016;-61
2021/04/22 01:40:58;;;;;;;25.08;22.40;;;20.10;37.50;;;;;;5067016;28;20020;-60
2021/04/22 01:43:27;;;;;;;27.50;24.58;;;20.10;36.90;;;;;;5067207;28;20013;-60
2021/04/22 01:45:55;;;;;;;30.48;26.00;;;20.10;36.20;;;;;;5066977;28;20136;-63
2021/04/22 01:48:24;;;;;;;34.33;27.63;;;20.20;37.40;;;;;;5060594;28;20170;-63
2021/04/22 01:50:51;;;;;;;32.42;28.02;;;20.50;36.50;;;;;;5071437;28;20288;-62
2021/04/22 01:53:19;;;;;;;33.83;28.98;;;20.60;36.60;;;;;;5074669;28;20025;-66
2021/04/22 01:55:49;;;;;;;34.63;28.65;;;20.80;37.60;;;;;;5075606;28;20115;-65
2021/04/22 01:58:22;;;;;;;33.38;28.25;;;20.80;37.30;;;;;;5071179;28;20389;-64
2021/04/22 02:00:58;;;;;;;38.40;31.65;;;20.80;36.30;;;;;;5073622;28;20020;-63
2021/04/22 02:03:30;;;;;;;38.35;32.22;;;20.70;36.30;;;;;;5074356;28;20069;-62
2021/04/22 02:05:57;;;;;;;;;;;21.00;36.90;;;;;;5073628;28;20417;-60
2021/04/22 02:08:25;;;;;;;43.97;33.83;;;20.90;35.00;;;;;;5074242;28;19915;-70
2021/04/22 02:10:52;;;;;;;34.03;29.48;;;21.00;35.20;;;;;;5071159;28;20035;-63
2021/04/22 02:13:21;;;;;;;36.60;30.27;;;21.00;36.00;;;;;;5073725;28;20020;-63
2021/04/22 02:15:54;;;;;;;32.58;27.48;;;21.00;35.00;;;;;;5074607;28;20107;-69
2021/04/22 02:18:22;;;;;;;30.80;24.23;;;21.10;35.20;;;;;;5074964;28;20106;-63
2021/04/22 02:20:52;;;;;;;27.58;24.58;;;20.90;34.90;;;;;;5073521;28;20017;-68
2021/04/22 02:23:21;;;;;;;29.70;25.70;;;20.80;35.40;;;;;;5070822;28;20020;-62
2021/04/22 02:25:49;;;;;;;31.15;25.55;;;21.00;35.90;;;;;;5072894;28;20118;-68
2021/04/22 02:28:17;;;;;;;31.45;26.45;;;21.10;35.40;;;;;;5074290;28;20625;-67
2021/04/22 02:30:45;;;;;;;30.20;24.92;;;21.30;35.90;;;;;;5075931;28;20048;-69
2021/04/22 02:33:15;;;;;;;27.20;22.95;;;21.20;35.20;;;;;;5073918;28;20559;-70
2021/04/22 02:35:45;;;;;;;29.42;22.02;;;21.30;35.40;;;;;;5074658;28;20406;-69
2021/04/22 02:38:14;;;;;;;23.25;18.25;;;21.30;35.00;;;;;;5076847;28;20031;-66
2021/04/22 02:40:43;;;;;;;25.35;19.15;;;21.40;35.00;;;;;;5074108;28;20020;-64
2021/04/22 02:43:14;;;;;;;25.50;19.52;;;21.40;35.40;;;;;;5076497;28;20525;-63
2021/04/22 02:45:44;;;;;;;24.90;18.27;;;21.40;35.00;;;;;;5084896;22;20390;-69
2021/04/22 02:48:13;;;;;;;23.02;16.60;;;21.20;36.80;;;;;;5044396;28;20025;-68
2021/04/22 02:50:53;;;;;;;22.45;15.15;;;21.10;36.10;;;;;;5043674;28;20448;-62
2021/04/22 02:53:21;;;;;;;19.23;15.35;;;21.10;36.30;;;;;;5043262;28;20017;-68
2021/04/22 02:55:49;;;;;;;21.17;15.73;;;21.40;35.30;;;;;;5044887;28;20025;-62
2021/04/22 02:58:17;;;;;;;19.05;14.35;;;21.80;35.20;;;;;;5041512;28;20051;-68
2021/04/22 03:00:46;;;;;;;18.65;15.40;;;22.30;34.40;;;;;;5040306;28;20310;-69
2021/04/22 03:03:14;;;;;;;13.88;10.45;;;22.30;35.20;;;;;;5040987;28;20078;-68
2021/04/22 03:05:42;;;;;;;12.15;9.25;;;22.10;33.90;;;;;;5040921;28;20468;-61
2021/04/22 03:08:09;;;;;;;12.85;9.57;;;21.90;35.50;;;;;;5042572;28;20142;-67
2021/04/22 03:10:37;;;;;;;11.95;9.05;;;21.90;35.10;;;;;;5042195;28;20427;-62
2021/04/22 03:13:05;;;;;;;12.02;9.55;;;21.70;34.80;;;;;;5041366;28;20028;-62
2021/04/22 03:15:34;;;;;;;12.20;7.90;;;21.90;35.10;;;;;;5040299;28;20032;-67
2021/04/22 03:18:02;;;;;;;12.00;6.60;;;22.20;34.90;;;;;;5041022;28;20029;-61
2021/04/22 03:20:29;;;;;;;8.45;5.07;;;22.50;34.90;;;;;;5042918;28;20017;-61
2021/04/22 03:22:57;;;;;;;7.28;5.00;;;22.40;34.70;;;;;;5038391;28;20028;-62
2021/04/22 03:25:27;;;;;;;7.03;5.25;;;22.10;34.60;;;;;;5023821;28;20025;-68
2021/04/22 03:27:54;;;;;;;8.05;4.97;;;21.80;35.10;;;;;;5040317;28;20017;-69
2021/04/22 03:30:25;;;;;;;8.90;4.60;;;21.80;35.30;;;;;;5041640;28;20423;-70
2021/04/22 03:32:53;;;;;;;7.43;4.60;;;21.90;34.20;;;;;;5038350;28;20071;-69
2021/04/22 03:35:21;;;;;;;10.10;4.35;;;22.10;35.40;;;;;;5043238;28;20107;-62
2021/04/22 03:37:49;;;;;;;7.13;2.97;;;22.00;36.30;;;;;;5039039;28;20032;-63
2021/04/22 03:40:18;;;;;;;9.60;2.35;;;22.00;35.20;;;;;;5039463;28;20096;-68
2021/04/22 03:42:46;;;;;;;9.40;2.22;;;22.10;35.30;;;;;;5041811;28;20036;-69
2021/04/22 03:45:15;;;;;;;6.80;2.75;;;21.90;34.50;;;;;;5042497;28;20475;-61
2021/04/22 03:47:43;;;;;;;8.70;3.17;;;22.20;35.30;;;;;;5043818;28;20060;-68
2021/04/22 03:50:13;;;;;;;5.82;3.15;;;22.20;33.90;;;;;;5038280;28;20033;-62
2021/04/22 03:52:40;;;;;;;9.55;5.57;;;22.20;34.60;;;;;;5038725;28;20123;-68
2021/04/22 03:55:09;;;;;;;8.48;5.70;;;22.40;34.40;;;;;;5041021;28;20025;-67
2021/04/22 03:57:37;;;;;;;12.80;7.45;;;22.70;34.50;;;;;;5042877;28;20021;-62
2021/04/22 04:00:10;;;;;;;14.57;10.23;;;22.80;33.60;;;;;;5041939;28;20033;-67
2021/04/22 04:02:37;;;;;;;15.82;10.82;;;22.50;33.00;;;;;;5030651;28;20025;-67
2021/04/22 04:05:06;;;;;;;15.68;7.20;;;22.20;34.00;;;;;;5031450;28;20017;-67
2021/04/22 04:07:33;;;;;;;5.28;2.03;;;22.10;35.20;;;;;;5036971;28;20034;-68
2021/04/22 04:10:01;;;;;;;9.50;1.77;;;22.20;35.80;;;;;;5034800;28;20463;-63
2021/04/22 04:12:28;;;;;;;4.90;1.30;;;21.80;35.40;;;;;;4339601;28;10000291;-63
2021/04/22 04:14:56;;;;;;;5.72;1.20;;;21.70;35.30;;;;;;5027602;28;20018;-63
2021/04/22 04:17:23;;;;;;;5.57;1.40;;;21.60;35.90;;;;;;5033429;28;20580;-61
2021/04/22 04:19:51;;;;;;;3.83;1.30;;;21.60;36.40;;;;;;5032312;28;20028;-70
2021/04/22 04:22:18;;;;;;;4.97;1.38;;;21.60;35.50;;;;;;5037779;28;20017;-63
2021/04/22 04:24:46;;;;;;;3.05;0.90;;;21.70;36.00;;;;;;5033435;28;20073;-63
2021/04/22 04:27:13;;;;;;;3.05;1.00;;;21.70;35.80;;;;;;5034722;28;20053;-63
2021/04/22 04:29:40;;;;;;;5.85;1.15;;;21.70;35.30;;;;;;5032265;28;20021;-69
2021/04/22 04:32:08;;;;;;;1.95;0.85;;;21.60;35.20;;;;;;5032984;28;20032;-70
2021/04/22 04:34:35;;;;;;;3.30;1.10;;;21.60;35.90;;;;;;5026461;28;20025;-69
2021/04/22 04:37:03;;;;;;;4.60;1.20;;;21.70;36.00;;;;;;5032999;28;20578;-64
2021/04/22 04:39:30;;;;;;;6.25;1.52;;;21.60;35.40;;;;;;5030806;28;20383;-64
2021/04/22 04:41:58;;;;;;;2.70;1.02;;;21.30;35.70;;;;;;5031677;28;20017;-61
2021/04/22 04:44:25;;;;;;;1.83;1.00;;;21.20;35.60;;;;;;5028028;28;20028;-65
2021/04/22 04:46:53;;;;;;;4.03;1.10;;;21.20;36.00;;;;;;5033529;28;20076;-63
2021/04/22 04:49:20;;;;;;;5.00;1.17;;;21.00;36.30;;;;;;5031645;28;20108;-69
2021/04/22 04:51:48;;;;;;;4.32;1.25;;;21.00;37.00;;;;;;5032425;28;20025;-61
2021/04/22 04:54:15;;;;;;;4.70;1.73;;;20.80;37.30;;;;;;5021509;28;20378;-68
2021/04/22 04:56:43;;;;;;;11.65;1.77;;;20.90;37.20;;;;;;5037546;28;20029;-61
2021/04/22 04:59:10;;;;;;;3.08;1.10;;;21.20;36.20;;;;;;5035746;28;20033;-62
2021/04/22 05:01:37;;;;;;;10.98;1.45;;;21.30;36.60;;;;;;5034356;28;20575;-62
2021/04/22 05:04:05;;;;;;;7.93;1.00;;;21.10;36.00;;;;;;5032832;28;20033;-68
2021/04/22 05:06:33;;;;;;;4.68;1.30;;;20.70;37.00;;;;;;5035967;28;20491;-69
2021/04/22 05:09:00;;;;;;;5.47;1.15;;;20.30;37.00;;;;;;5034783;28;20018;-63
2021/04/22 05:11:27;;;;;;;6.72;1.20;;;20.20;38.00;;;;;;5036271;28;20044;-70
2021/04/22 05:13:55;;;;;;;7.38;1.27;;;20.30;37.30;;;;;;5036737;28;20151;-63
2021/04/22 05:16:22;;;;;;;3.97;1.35;;;20.30;37.20;;;;;;5042805;28;20087;-69
2021/04/22 05:18:49;;;;;;;4.82;1.63;;;20.30;37.00;;;;;;5042692;28;20021;-61
2021/04/22 05:21:17;;;;;;;9.90;1.85;;;20.50;38.40;;;;;;5041878;28;20033;-69
2021/04/22 05:23:44;;;;;;;4.35;1.27;;;20.60;37.10;;;;;;5023492;28;20036;-62
2021/04/22 05:26:11;;;;;;;3.65;1.13;;;20.40;37.00;;;;;;5038846;28;20108;-61
2021/04/22 05:28:39;;;;;;;2.55;1.08;;;20.30;37.40;;;;;;5038659;28;20064;-60
2021/04/22 05:31:06;;;;;;;5.63;1.10;;;20.00;37.60;;;;;;5039412;28;20025;-61
2021/04/22 05:33:34;;;;;;;13.35;1.73;;;20.00;37.80;;;;;;5038214;28;20415;-63
2021/04/22 05:36:01;;;;;;;5.80;1.55;;;20.20;37.00;;;;;;5018624;28;20035;-61
2021/04/22 05:38:28;;;;;;;6.57;1.65;;;20.10;36.50;;;;;;5043081;28;20029;-61
2021/04/22 05:40:55;;;;;;;4.40;1.20;;;20.00;36.60;;;;;;5043472;28;20045;-62
2021/04/22 05:43:23;;;;;;;10.50;1.40;;;20.00;36.60;;;;;;5042642;28;20025;-70
2021/04/22 05:45:50;;;;;;;10.57;2.53;;;20.00;37.20;;;;;;5043289;28;20025;-69
2021/04/22 05:48:18;;;;;;;4.05;0.93;;;20.10;37.90;;;;;;5038389;28;20029;-69
2021/04/22 05:50:46;;;;;;;5.30;1.60;;;20.10;37.20;;;;;;5040425;28;20088;-62
2021/04/22 05:53:13;;;;;;;2.92;1.08;;;20.20;37.20;;;;;;5040837;28;20018;-69
2021/04/22 05:55:40;;;;;;;8.88;1.88;;;20.30;37.60;;;;;;5040750;28;20056;-69
2021/04/22 05:58:07;;;;;;;7.22;1.50;;;20.50;36.60;;;;;;5038463;28;20030;-69
2021/04/22 06:00:35;;;;;;;8.93;1.50;;;20.50;36.50;;;;;;5041838;28;20025;-68
2021/04/22 06:03:04;;;;;;;7.20;1.40;;;20.30;36.80;;;;;;5038896;28;20087;-63
2021/04/22 06:05:31;;;;;;;8.02;1.50;;;20.20;37.10;;;;;;5041697;28;20471;-63
2021/04/22 06:07:59;;;;;;;8.45;1.90;;;20.20;37.80;;;;;;5038719;28;20079;-67
2021/04/22 06:10:26;;;;;;;5.22;1.60;;;20.60;37.70;;;;;;5041316;28;20107;-68
2021/04/22 06:12:54;;;;;;;6.88;1.77;;;20.70;35.20;;;;;;5041272;28;20150;-63
2021/04/22 06:15:22;;;;;;;7.90;1.80;;;20.80;35.00;;;;;;5035155;28;20026;-67
2021/04/22 06:17:49;;;;;;;6.15;1.38;;;20.60;35.90;;;;;;5040442;28;20029;-67
2021/04/22 06:20:20;;;;;;;9.70;1.45;;;20.40;35.90;;;;;;5038690;28;20039;-68
2021/04/22 06:22:49;;;;;;;12.07;1.85;;;20.50;36.20;;;;;;5038737;28;20039;-68
2021/04/22 06:25:19;;;;;;;4.35;1.25;;;20.70;36.20;;;;;;5039053;28;20025;-62
2021/04/22 06:27:48;;;;;;;9.68;1.13;;;20.80;35.70;;;;;;5037108;28;20112;-66
2021/04/22 06:30:16;;;;;;;11.40;1.65;;;20.90;35.20;;;;;;5040887;28;20021;-66
2021/04/22 06:32:44;;;;;;;10.88;1.80;;;20.80;36.10;;;;;;5042543;28;20025;-62
2021/04/22 06:35:13;;;;;;;18.40;2.28;;;20.80;35.70;;;;;;5039141;28;20046;-71
2021/04/22 06:37:43;;;;;;;13.57;2.33;;;20.80;36.00;;;;;;5030600;28;20454;-72
2021/04/22 06:40:18;;;;;;;14.77;1.90;;;20.70;35.60;;;;;;5038280;28;20056;-65
2021/04/22 06:42:47;;;;;;;8.20;1.33;;;20.30;36.00;;;;;;5028763;28;20079;-69
2021/04/22 06:45:16;;;;;;;9.95;1.67;;;19.90;36.80;;;;;;5031195;28;20463;-72
2021/04/22 06:47:46;;;;;;;15.57;2.00;;;19.60;37.40;;;;;;5038702;28;20071;-72
2021/04/22 06:50:22;;;;;;;11.40;1.30;;;19.60;37.50;;;;;;5035025;28;20053;-64
2021/04/22 06:52:51;;;;;;;10.80;1.73;;;19.20;37.70;;;;;;5028955;28;20025;-71
2021/04/22 06:55:24;;;;;;;11.00;2.25;;;19.00;38.40;;;;;;5037561;28;20496;-65
2021/04/22 06:57:52;;;;;;;14.35;1.88;;;18.80;38.60;;;;;;5032985;28;20282;-65
2021/04/22 07:00:22;;;;;;;10.90;1.20;;;18.60;39.10;;;;;;5034721;28;20476;-72
2021/04/22 07:02:50;;;;;;;7.55;1.25;;;18.40;39.00;;;;;;5033110;28;20025;-69
2021/04/22 07:05:18;;;;;;;5.45;1.40;;;18.30;39.20;;;;;;5030025;28;20025;-64
2021/04/22 07:07:46;;;;;;;8.57;1.40;;;18.20;39.50;;;;;;5029611;28;20036;-70
2021/04/22 07:10:14;;;;;;;7.07;1.95;;;17.90;39.80;;;;;;5023910;28;20017;-65
2021/04/22 07:12:42;;;;;;;4.72;1.42;;;17.60;40.40;;;;;;5030707;28;20037;-71
2021/04/22 07:15:11;;;;;;;15.18;2.67;;;17.40;40.80;;;;;;5038157;28;20053;-72
2021/04/22 07:17:38;;;;;;;9.27;1.83;;;17.20;41.30;;;;;;5037595;28;20041;-73
2021/04/22 07:20:10;;;;;;;18.85;1.95;;;17.00;41.60;;;;;;5038308;28;20025;-64
2021/04/22 07:22:38;;;;;;;13.13;1.73;;;16.80;42.40;;;;;;5034223;28;20029;-73
2021/04/22 07:25:07;;;;;;;7.78;1.13;;;16.50;43.10;;;;;;5036647;28;20678;-65
2021/04/22 07:27:34;;;;;;;7.72;1.42;;;16.30;43.00;;;;;;5020972;28;20024;-74
2021/04/22 07:30:03;;;;;;;3.40;0.93;;;16.10;43.60;;;;;;5034853;28;20021;-72
2021/04/22 07:32:30;;;;;;;5.40;2.20;;;16.00;43.60;;;;;;5037241;28;20029;-64
2021/04/22 07:34:57;;;;;;;9.05;2.90;;;15.80;44.00;;;;;;5039168;28;20104;-64
2021/04/22 07:37:25;;;;;;;9.77;1.77;;;15.70;44.30;;;;;;5017161;28;20032;-64
2021/04/22 07:39:52;;;;;;;6.95;1.65;;;15.60;44.50;;;;;;5015729;28;20030;-64
2021/04/22 07:42:19;;;;;;;10.63;1.38;;;15.60;44.80;;;;;;5037265;28;20040;-64
2021/04/22 07:44:47;;;;;;;7.30;1.23;;;15.50;44.90;;;;;;5039521;28;20013;-64
2021/04/22 07:47:17;;;;;;;4.13;0.93;;;15.40;45.10;;;;;;5036811;28;20044;-64
2021/04/22 07:49:45;;;;;;;3.55;1.00;;;15.30;45.10;;;;;;5035467;28;20033;-73
2021/04/22 07:52:16;;;;;;;5.03;1.15;;;15.20;46.10;;;;;;5033795;28;20099;-73
2021/04/22 07:54:44;;;;;;;4.45;1.58;;;15.20;45.40;;;;;;5034084;28;20760;-73
2021/04/22 07:57:12;;;;;;;6.57;1.00;;;15.20;45.40;;;;;;5031497;28;20025;-73
2021/04/22 07:59:39;;;;;;;8.73;1.10;;;15.20;45.30;;;;;;5031394;28;20164;-73
2021/04/22 08:02:08;;;;;;;7.10;1.13;;;15.10;45.70;;;;;;5036428;28;20021;-70
2021/04/22 08:04:36;;;;;;;8.13;1.55;;;15.00;45.80;;;;;;5032683;28;20114;-64
2021/04/22 08:07:03;;;;;;;14.68;1.85;;;14.90;45.80;;;;;;5034142;28;20098;-63
2021/04/22 08:09:33;;;;;;;16.75;2.42;;;14.90;45.80;;;;;;5037923;28;20055;-64
2021/04/22 08:12:01;;;;;;;11.15;1.92;;;14.90;45.90;;;;;;5033130;28;20029;-71
2021/04/22 08:14:28;;;;;;;15.63;1.75;;;14.90;46.10;;;;;;5036340;28;20420;-72
2021/04/22 08:16:55;;;;;;;10.98;2.83;;;14.90;46.10;;;;;;5031824;28;20419;-70
2021/04/22 08:19:23;;;;;;;8.43;2.17;;;14.80;46.40;;;;;;5037720;28;20021;-70
2021/04/22 08:21:50;;;;;;;10.18;1.70;;;14.70;46.40;;;;;;5033817;28;20468;-68
2021/04/22 08:24:17;;;;;;;15.10;2.75;;;14.60;46.90;;;;;;5032829;28;20291;-64
2021/04/22 08:26:45;;;;;;;16.42;3.05;;;14.60;46.80;;;;;;5035226;28;20061;-70
2021/04/22 08:29:12;;;;;;;5.68;1.85;;;14.60;46.70;;;;;;5039534;28;20033;-75
2021/04/22 08:31:40;;;;;;;6.55;1.35;;;14.50;46.60;;;;;;5039058;28;20586;-66
2021/04/22 08:34:08;;;;;;;10.43;2.33;;;14.60;46.60;;;;;;5037716;28;20087;-73
2021/04/22 08:36:36;;;;;;;3.28;1.38;;;14.50;47.00;;;;;;5035848;28;20094;-73
2021/04/22 08:39:07;;;;;;;9.63;1.25;;;14.40;47.20;;;;;;5040434;28;20032;-70
2021/04/22 08:41:35;;;;;;;3.10;0.88;;;14.40;47.20;;;;;;5035023;28;20420;-64
2021/04/22 08:44:03;;;;;;;3.30;0.90;;;14.30;47.20;;;;;;5036442;28;20512;-70
2021/04/22 08:46:35;;;;;;;2.20;1.10;;;14.30;47.90;;;;;;5036877;28;20563;-69
2021/04/22 08:49:02;;;;;;;2.22;1.23;;;14.30;47.30;;;;;;5038652;28;20076;-68
2021/04/22 08:51:30;;;;;;;2.38;1.00;;;14.30;47.60;;;;;;5038031;28;20100;-74
2021/04/22 08:53:57;;;;;;;2.15;1.10;;;14.30;47.50;;;;;;5036467;28;20502;-67
2021/04/22 08:56:24;;;;;;;5.25;1.83;;;14.30;47.40;;;;;;5013986;28;20057;-64
2021/04/22 08:58:52;;;;;;;17.13;9.68;;;14.30;47.50;;;;;;5015286;28;20017;-67
2021/04/22 09:01:21;;;;;;;5.07;1.20;;;14.20;48.70;;;;;;5041207;28;20031;-69
2021/04/22 09:03:49;;;;;;;4.40;1.40;;;14.20;47.50;;;;;;5040198;28;20021;-72
2021/04/22 09:06:17;;;;;;;4.63;1.40;;;14.20;47.80;;;;;;5037447;28;20041;-64
2021/04/22 09:08:51;;;;;;;3.70;1.25;;;14.00;48.30;;;;;;5033401;28;20039;-64
2021/04/22 09:11:22;;;;;;;4.68;1.45;;;14.00;48.60;;;;;;5026374;28;20047;-71
2021/04/22 09:13:50;;;;;;;5.30;1.83;;;14.00;48.40;;;;;;5029759;28;20030;-64
2021/04/22 09:16:20;;;;;;;2.72;1.40;;;13.80;48.50;;;;;;5030453;28;20032;-66
2021/04/22 09:18:53;;;;;;;3.22;1.80;;;13.80;48.70;;;;;;5024787;28;20026;-72
2021/04/22 09:21:36;;;;;;;2.05;1.30;;;13.80;49.00;;;;;;5019397;28;20079;-75
2021/04/22 09:24:14;;;;;;;4.95;2.33;;;13.70;48.90;;;;;;5021895;28;20460;-65
2021/04/22 09:27:02;;;;;;;4.30;1.10;;;13.60;49.30;;;;;;5022372;28;20055;-76
2021/04/22 09:29:32;;;;;;;2.53;1.45;;;13.50;49.80;;;;;;5019946;28;20475;-77
2021/04/22 09:32:10;;;;;;;3.72;1.58;;;13.40;50.10;;;;;;5021935;28;20033;-64
2021/04/22 09:34:38;;;;;;;5.68;2.22;;;13.40;50.20;;;;;;5021457;28;20062;-67
2021/04/22 09:37:05;;;;;;;3.88;1.63;;;13.20;50.70;;;;;;5020329;28;20048;-67
2021/04/22 09:39:34;;;;;;;2.80;1.85;;;13.10;51.10;;;;;;5023036;28;20384;-71
2021/04/22 09:42:08;;;;;;;4.30;1.65;;;13.10;51.10;;;;;;5017482;28;20285;-76
2021/04/22 09:44:37;;;;;;;2.60;0.98;;;13.10;51.10;;;;;;5018499;28;20614;-75
2021/04/22 09:47:09;;;;;;;11.93;6.75;;;13.10;51.40;;;;;;5019423;28;20053;-70
2021/04/22 09:49:59;;;;;;;5.50;2.35;;;13.10;51.30;;;;;;5019330;28;20144;-64
2021/04/22 09:52:37;;;;;;;8.35;4.38;;;13.00;51.90;;;;;;5020770;28;20462;-74
2021/04/22 09:55:07;;;;;;;4.43;1.58;;;12.80;52.40;;;;;;5020504;28;20029;-71
2021/04/22 09:57:35;;;;;;;4.95;1.92;;;12.60;53.10;;;;;;5022306;28;20400;-77
2021/04/22 10:00:13;;;;;;;4.47;1.80;;;12.40;54.00;;;;;;5022231;28;20030;-65
2021/04/22 10:02:55;;;;;;;2.95;1.50;;;12.20;54.80;;;;;;5004340;28;20486;-70
2021/04/22 10:05:25;;;;;;;5.57;3.05;;;12.00;55.40;;;;;;5022977;28;20116;-77
2021/04/22 10:08:05;;;;;;;6.25;2.80;;;11.80;56.40;;;;;;5019804;28;20044;-65
2021/04/22 10:10:33;;;;;;;3.88;2.10;;;11.70;56.60;;;;;;5021442;28;20037;-66
2021/04/22 10:13:11;;;;;;;4.13;2.45;;;11.60;57.10;;;;;;5021771;28;20048;-66
2021/04/22 10:15:53;;;;;;;4.95;2.30;;;11.50;57.50;;;;;;5020991;28;20037;-63
2021/04/22 10:18:21;;;;;;;5.22;2.38;;;11.40;58.00;;;;;;5019468;28;20028;-65
2021/04/22 10:20:50;;;;;;;5.63;2.30;;;11.40;59.20;;;;;;5004969;28;20029;-65
2021/04/22 10:23:17;;;;;;;2.42;1.52;;;11.40;58.80;;;;;;5020544;28;20024;-69
2021/04/22 10:25:44;;;;;;;5.15;3.10;;;11.30;59.40;;;;;;5021610;28;20037;-72
2021/04/22 10:28:14;;;;;;;4.70;2.60;;;11.20;60.40;;;;;;5016375;28;20030;-69
2021/04/22 10:30:44;;;;;;;4.25;1.90;;;11.20;61.40;;;;;;5018075;28;20598;-64
2021/04/22 10:33:12;;;;;;;5.15;2.83;;;11.10;60.20;;;;;;5020704;28;20057;-64
2021/04/22 10:35:42;;;;;;;4.97;3.08;;;11.00;60.00;;;;;;5022338;28;20040;-74
2021/04/22 10:38:11;;;;;;;8.30;3.08;;;10.90;61.00;;;;;;5021256;28;20099;-73
2021/04/22 10:40:42;;;;;;;7.60;3.40;;;10.90;61.20;;;;;;5018955;28;20467;-64
2021/04/22 10:43:16;;;;;;;6.90;3.28;;;10.90;62.90;;;;;;5020823;28;20048;-71
2021/04/22 10:45:44;;;;;;;5.93;3.67;;;10.90;61.80;;;;;;5020398;28;20075;-63
2021/04/22 10:48:11;;;;;;;8.82;3.92;;;10.80;62.70;;;;;;5020546;28;20192;-74
2021/04/22 10:50:42;;;;;;;10.90;7.05;;;10.80;62.30;;;;;;5021752;28;20033;-64
2021/04/22 10:53:13;;;;;;;12.98;8.07;;;10.80;62.80;;;;;;5021385;28;20033;-76
2021/04/22 10:55:44;;;;;;;13.27;7.00;;;10.80;63.40;;;;;;5002957;28;20060;-72
2021/04/22 10:58:27;;;;;;;16.50;9.82;;;10.80;63.40;;;;;;5021978;28;20765;-63
2021/04/22 11:00:59;;;;;;;13.63;8.70;;;10.80;64.20;;;;;;5018983;28;20083;-63
2021/04/22 11:03:42;;;;;;;12.07;6.57;;;10.70;64.60;;;;;;5021252;28;20598;-74
2021/04/22 11:06:19;;;;;;;10.02;5.15;;;10.70;64.20;;;;;;5020458;28;20029;-64
2021/04/22 11:08:50;;;;;;;7.50;4.82;;;10.60;63.90;;;;;;5018400;28;20053;-63
2021/04/22 11:11:22;;;;;;;6.13;3.72;;;10.40;64.30;;;;;;5016243;28;20029;-67
2021/04/22 11:13:51;;;;;;;6.60;3.50;;;10.30;64.70;;;;;;5018259;28;20025;-71
2021/04/22 11:16:33;;;;;;;7.15;4.32;;;10.20;64.80;;;;;;5015386;28;20546;-62
2021/04/22 11:19:01;;;;;;;5.80;3.97;;;10.00;65.90;;;;;;5017445;28;20526;-62
2021/04/22 11:21:32;;;;;;;8.10;4.45;;;9.90;66.20;;;;;;5019091;28;20029;-69
2021/04/22 11:24:02;;;;;;;6.32;4.32;;;9.80;67.40;;;;;;5019277;28;20033;-69
2021/04/22 11:26:37;;;;;;;4.65;3.50;;;9.80;67.20;;;;;;5021370;28;20554;-62
2021/04/22 11:29:50;;;;;;;9.43;4.03;;;9.90;66.10;;;;;;5016454;28;20057;-62
2021/04/22 11:32:39;;;;;;;6.88;3.85;;;9.90;66.70;;;;;;5013537;28;20136;-71
2021/04/22 11:35:06;;;;;;;6.10;3.28;;;9.90;66.70;;;;;;5022511;28;20041;-62
2021/04/22 11:37:38;;;;;;;6.78;3.88;;;9.90;65.50;;;;;;5024959;28;20038;-63
2021/04/22 11:40:22;;;;;;;5.40;3.03;;;9.90;66.70;;;;;;5025319;28;20515;-62
2021/04/22 11:42:52;;;;;;;5.38;3.13;;;9.80;66.10;;;;;;5024500;28;20355;-70
2021/04/22 11:45:26;;;;;;;6.25;3.50;;;9.80;66.10;;;;;;5026032;28;20319;-71
2021/04/22 11:48:03;;;;;;;7.90;3.15;;;9.80;65.10;;;;;;5025388;28;20524;-64
2021/04/22 11:50:48;;;;;;;5.05;2.47;;;9.80;65.60;;;;;;5029580;28;20026;-65
2021/04/22 11:53:17;;;;;;;5.60;3.17;;;9.90;65.20;;;;;;5024366;28;20032;-73
2021/04/22 11:55:50;;;;;;;7.82;3.58;;;9.80;66.10;;;;;;5022532;28;20092;-68
2021/04/22 11:58:23;;;;;;;4.95;3.30;;;9.70;66.50;;;;;;5024224;28;20510;-66
2021/04/22 12:01:05;;;;;;;8.68;3.75;;;9.60;66.10;;;;;;5026217;28;20336;-63
2021/04/22 12:03:35;;;;;;;5.28;2.90;;;9.60;66.90;;;;;;5030119;28;20377;-71
2021/04/22 12:06:07;;;;;;;7.50;3.55;;;9.50;66.40;;;;;;5031403;28;20444;-69
2021/04/22 12:08:41;;;;;;;9.30;3.78;;;9.50;66.10;;;;;;5032647;28;20032;-70
2021/04/22 12:11:18;;;;;;;5.85;3.08;;;9.60;65.90;;;;;;5030775;28;20480;-63
2021/04/22 12:13:46;;;;;;;6.28;2.88;;;9.60;65.10;;;;;;5029513;28;20029;-63
2021/04/22 12:16:15;;;;;;;6.72;2.95;;;9.70;65.30;;;;;;5031346;28;20033;-70
2021/04/22 12:18:47;;;;;;;4.40;2.83;;;9.60;65.60;;;;;;5033657;28;20029;-69
2021/04/22 12:21:22;;;;;;;6.25;3.28;;;9.60;66.00;;;;;;5037854;28;20495;-63
2021/04/22 12:23:52;;;;;;;5.95;2.70;;;9.50;66.50;;;;;;5035806;28;20033;-70
2021/04/22 12:26:28;;;;;;;4.38;3.00;;;9.50;66.90;;;;;;5037811;28;20025;-64
2021/04/22 12:29:10;;;;;;;4.85;2.88;;;9.50;67.10;;;;;;5033879;28;20025;-72
2021/04/22 12:31:42;;;;;;;4.40;2.85;;;9.40;67.00;;;;;;5034160;28;20033;-65
2021/04/22 12:34:34;;;;;;;5.35;3.20;;;9.40;66.80;;;;;;5028661;28;20078;-63
2021/04/22 12:37:09;;;;;;;7.18;3.92;;;9.40;67.00;;;;;;5035787;28;20044;-71
2021/04/22 12:39:42;;;;;;;5.28;3.20;;;9.30;67.50;;;;;;5037087;28;20067;-63
2021/04/22 12:42:27;;;;;;;4.63;3.17;;;9.30;67.10;;;;;;5038050;28;20032;-72
2021/04/22 12:44:57;;;;;;;7.28;2.97;;;9.30;67.40;;;;;;5036119;28;20087;-73
2021/04/22 12:47:45;;;;;;;5.72;3.28;;;9.30;69.20;;;;;;5034229;28;20434;-72
2021/04/22 12:50:39;;;;;;;5.70;3.20;;;9.20;69.90;;;;;;5034544;28;20391;-65
2021/04/22 12:53:20;;;;;;;6.00;3.20;;;9.20;69.90;;;;;;5025948;28;20076;-65